Time;durP1;ratioP1;P1;durP2;ratioP2;P2;SDS_P1;SDS_P2;PMS_P1;PMS_P2;Temp;Humidity;BMP_temperature;BMP_pressure;BME280_temperature;BME280_humidity;BME280_pressure;Samples;Min_cycle;Max_cycle;Signal;HPM_P1;HPM_P2
2022/03/16 00:00:20;;;;;;;11.38;9.10;;;;;;;1.76;100.00;101695.72;675604;29;4395;-81
2022/03/16 00:00:41;;;;;;;11.43;8.88;;;;;;;1.92;100.00;101712.78;676138;28;1304;-81
2022/03/16 00:01:02;;;;;;;11.73;8.98;;;;;;;2.02;100.00;101717.59;676279;28;1373;-81
2022/03/16 00:01:23;;;;;;;12.02;8.85;;;;;;;2.01;100.00;101722.69;675251;29;1272;-81
2022/03/16 00:01:54;;;;;;;12.63;9.52;;;;;;;1.92;100.00;101738.59;674688;29;1369;-82
2022/03/16 00:02:21;;;;;;;12.65;9.43;;;;;;;1.91;100.00;101720.47;678132;29;1026;-81
2022/03/16 00:02:43;;;;;;;14.65;10.15;;;;;;;1.86;100.00;101731.44;675878;29;834;-81
2022/03/16 00:03:03;;;;;;;12.77;9.52;;;;;;;1.92;100.00;101714.50;678413;29;1236;-80
2022/03/16 00:03:24;;;;;;;12.48;9.25;;;;;;;1.92;100.00;101701.59;673032;29;4310;-81
2022/03/16 00:03:45;;;;;;;13.17;9.83;;;;;;;1.96;100.00;101708.69;677978;29;1205;-81
2022/03/16 00:04:05;;;;;;;12.30;9.50;;;;;;;1.91;100.00;101693.00;673882;29;1138;-81
2022/03/16 00:04:26;;;;;;;12.38;9.52;;;;;;;1.82;100.00;101719.22;674616;29;1316;-80
2022/03/16 00:04:51;;;;;;;12.53;9.40;;;;;;;1.78;100.00;101711.28;675322;29;2237;-81
2022/03/16 00:05:12;;;;;;;12.25;9.48;;;;;;;1.73;100.00;101697.25;676082;29;2351;-81
2022/03/16 00:05:33;;;;;;;13.10;9.65;;;;;;;1.68;100.00;101700.50;679426;29;2028;-81
2022/03/16 00:05:54;;;;;;;12.50;9.40;;;;;;;1.60;100.00;101698.38;678287;29;853;-82
2022/03/16 00:06:17;;;;;;;13.13;9.65;;;;;;;1.53;100.00;101708.38;675047;29;4375;-80
2022/03/16 00:06:37;;;;;;;13.02;9.80;;;;;;;1.48;100.00;101719.28;677062;29;816;-81
2022/03/16 00:06:58;;;;;;;14.05;10.07;;;;;;;1.45;100.00;101690.78;677882;29;793;-81
2022/03/16 00:07:22;;;;;;;14.53;10.27;;;;;;;1.38;100.00;101714.47;678322;29;973;-81
2022/03/16 00:07:43;;;;;;;13.02;10.07;;;;;;;1.38;100.00;101728.25;679910;28;1312;-81
2022/03/16 00:08:06;;;;;;;13.10;10.20;;;;;;;1.39;100.00;101695.66;678350;28;1189;-81
2022/03/16 00:08:34;;;;;;;12.30;9.80;;;;;;;1.44;100.00;101700.22;679401;29;1227;-82
2022/03/16 00:08:55;;;;;;;12.60;9.75;;;;;;;1.47;100.00;101728.72;673237;29;957;-82
2022/03/16 00:09:18;;;;;;;13.50;10.10;;;;;;;1.50;100.00;101707.34;671045;29;4307;-81
2022/03/16 00:09:39;;;;;;;13.00;10.07;;;;;;;1.48;100.00;101701.22;674981;29;1624;-81
2022/03/16 00:09:59;;;;;;;13.23;10.35;;;;;;;1.44;100.00;101720.81;674418;29;1387;-81
2022/03/16 00:10:20;;;;;;;14.77;11.00;;;;;;;1.44;100.00;101691.56;676385;29;1536;-81
2022/03/16 00:10:40;;;;;;;14.35;10.05;;;;;;;1.46;100.00;101726.06;677082;29;915;-82
2022/03/16 00:11:01;;;;;;;13.27;10.00;;;;;;;1.47;100.00;101689.19;678316;29;1419;-81
2022/03/16 00:11:22;;;;;;;12.02;9.70;;;;;;;1.50;100.00;101715.09;676678;29;1304;-81
2022/03/16 00:11:42;;;;;;;12.02;9.88;;;;;;;1.50;100.00;101704.78;678771;29;846;-81
2022/03/16 00:12:03;;;;;;;12.17;10.03;;;;;;;1.56;100.00;101696.47;673995;29;976;-81
2022/03/16 00:12:24;;;;;;;12.55;10.07;;;;;;;1.61;100.00;101703.59;673457;29;4288;-82
2022/03/16 00:12:44;;;;;;;11.87;9.57;;;;;;;1.59;100.00;101705.22;677316;29;1130;-81
2022/03/16 00:13:05;;;;;;;12.23;9.73;;;;;;;1.55;100.00;101713.59;675845;29;871;-81
2022/03/16 00:13:25;;;;;;;13.83;9.93;;;;;;;1.55;100.00;101698.13;678849;29;1527;-81
2022/03/16 00:13:46;;;;;;;12.68;9.57;;;;;;;1.56;100.00;101694.75;682356;28;951;-81
2022/03/16 00:14:06;;;;;;;12.23;9.55;;;;;;;1.67;100.00;101697.84;679566;29;1106;-81
2022/03/16 00:14:27;;;;;;;12.43;9.63;;;;;;;1.80;100.00;101738.00;680146;29;978;-81
2022/03/16 00:14:48;;;;;;;12.27;9.18;;;;;;;1.83;100.00;101694.34;680999;29;1328;-81
2022/03/16 00:15:09;;;;;;;11.93;9.10;;;;;;;1.92;100.00;101688.72;678160;29;1612;-81
2022/03/16 00:15:30;;;;;;;12.45;9.38;;;;;;;1.89;100.00;101710.06;675250;29;4655;-80
2022/03/16 00:15:51;;;;;;;11.10;9.15;;;;;;;1.81;100.00;101711.41;678323;28;1245;-83
2022/03/16 00:16:11;;;;;;;11.88;9.20;;;;;;;1.76;100.00;101712.88;677200;29;1014;-81
2022/03/16 00:16:32;;;;;;;12.00;9.67;;;;;;;1.72;100.00;101687.75;674947;29;1486;-80
2022/03/16 00:16:52;;;;;;;13.03;9.77;;;;;;;1.67;100.00;101708.16;675578;29;875;-81
2022/03/16 00:17:13;;;;;;;14.07;10.05;;;;;;;1.68;100.00;101695.34;674656;29;845;-81
2022/03/16 00:17:33;;;;;;;14.17;9.80;;;;;;;1.72;100.00;101698.06;674412;29;5828;-81
2022/03/16 00:17:54;;;;;;;14.15;9.35;;;;;;;1.79;100.00;101706.19;673061;29;1047;-81
2022/03/16 00:18:15;;;;;;;12.55;9.07;;;;;;;1.87;100.00;101711.72;672935;29;4424;-81
2022/03/16 00:18:35;;;;;;;11.07;8.90;;;;;;;2.00;100.00;101719.19;671403;29;1247;-82
2022/03/16 00:18:55;;;;;;;12.07;9.20;;;;;;;2.08;100.00;101698.94;671903;29;1980;-81
2022/03/16 00:19:16;;;;;;;11.87;9.43;;;;;;;2.20;100.00;101691.78;670206;29;1240;-81
2022/03/16 00:19:39;;;;;;;11.35;9.00;;;;;;;2.21;100.00;101723.59;676132;29;1205;-81
2022/03/16 00:20:03;;;;;;;11.52;8.75;;;;;;;2.26;100.00;101711.81;676390;29;1686;-82
2022/03/16 00:20:24;;;;;;;11.48;8.80;;;;;;;2.34;100.00;101701.81;676689;29;1416;-81
2022/03/16 00:20:44;;;;;;;12.40;8.82;;;;;;;2.44;100.00;101721.19;675137;29;1201;-81
2022/03/16 00:21:08;;;;;;;10.73;8.73;;;;;;;2.43;100.00;101698.78;674817;29;961;-81
2022/03/16 00:21:28;;;;;;;10.85;8.63;;;;;;;2.34;100.00;101701.81;673228;29;4296;-80
2022/03/16 00:21:49;;;;;;;11.30;8.98;;;;;;;2.21;100.00;101711.56;675243;29;1024;-81
2022/03/16 00:22:12;;;;;;;12.18;8.93;;;;;;;2.06;100.00;101702.25;676626;29;1239;-80
2022/03/16 00:22:32;;;;;;;11.77;8.73;;;;;;;1.93;100.00;101699.09;678372;29;1155;-81
2022/03/16 00:23:02;;;;;;;11.43;8.93;;;;;;;1.84;100.00;101703.81;676454;29;1227;-81
2022/03/16 00:23:28;;;;;;;11.13;8.75;;;;;;;1.67;100.00;101709.03;677220;29;1177;-81
2022/03/16 00:23:49;;;;;;;13.20;9.25;;;;;;;1.60;100.00;101716.41;677582;29;1426;-81
2022/03/16 00:24:10;;;;;;;11.98;9.02;;;;;;;1.61;100.00;101710.47;678839;29;1213;-81
2022/03/16 00:24:31;;;;;;;11.45;8.98;;;;;;;1.67;100.00;101713.31;676808;29;4286;-81
2022/03/16 00:24:52;;;;;;;11.50;8.85;;;;;;;1.65;100.00;101710.69;678190;29;1238;-82
2022/03/16 00:25:12;;;;;;;13.10;9.32;;;;;;;1.62;100.00;101719.94;677080;29;1295;-81
2022/03/16 00:25:33;;;;;;;11.90;9.32;;;;;;;1.56;100.00;101694.75;677457;29;973;-82
2022/03/16 00:25:53;;;;;;;11.57;9.47;;;;;;;1.55;100.00;101718.75;675432;29;1236;-81
2022/03/16 00:26:15;;;;;;;12.00;9.45;;;;;;;1.47;100.00;101689.19;672423;29;1001;-81
2022/03/16 00:26:35;;;;;;;12.68;9.75;;;;;;;1.40;100.00;101703.44;671589;29;1605;-81
2022/03/16 00:26:56;;;;;;;12.23;9.68;;;;;;;1.31;100.00;101684.94;673487;29;845;-81
2022/03/16 00:27:17;;;;;;;12.63;9.95;;;;;;;1.29;100.00;101696.88;669868;29;4392;-81
2022/03/16 00:27:39;;;;;;;13.30;9.55;;;;;;;1.25;100.00;101729.31;671153;29;1585;-81
2022/03/16 00:28:03;;;;;;;13.00;9.93;;;;;;;1.21;100.00;101711.94;675978;29;1285;-81
2022/03/16 00:28:26;;;;;;;13.82;10.18;;;;;;;1.17;100.00;101686.84;676309;29;1077;-80
2022/03/16 00:28:46;;;;;;;13.95;10.25;;;;;;;1.11;100.00;101691.66;678289;29;1335;-81
2022/03/16 00:29:07;;;;;;;13.70;10.03;;;;;;;1.14;100.00;101697.00;679112;29;933;-81
2022/03/16 00:29:28;;;;;;;13.48;10.05;;;;;;;1.10;100.00;101695.06;676185;29;1237;-81
2022/03/16 00:29:49;;;;;;;12.70;9.82;;;;;;;1.04;100.00;101718.81;675334;29;1223;-81
2022/03/16 00:30:10;;;;;;;13.80;10.20;;;;;;;1.05;100.00;101699.09;672541;29;1178;-80
2022/03/16 00:30:31;;;;;;;13.85;10.30;;;;;;;1.11;100.00;101689.09;674258;29;4636;-81
2022/03/16 00:30:52;;;;;;;11.98;9.60;;;;;;;1.18;100.00;101684.34;675495;29;1305;-81
2022/03/16 00:31:13;;;;;;;12.15;9.57;;;;;;;1.16;100.00;101692.78;678162;29;1459;-81
2022/03/16 00:31:35;;;;;;;12.20;9.50;;;;;;;1.23;100.00;101702.59;674184;29;1505;-80
2022/03/16 00:31:58;;;;;;;13.55;10.35;;;;;;;1.22;100.00;101706.00;673531;29;1317;-81
2022/03/16 00:32:19;;;;;;;13.30;10.10;;;;;;;1.36;100.00;101692.09;673012;29;1470;-81
2022/03/16 00:32:39;;;;;;;13.75;9.85;;;;;;;1.47;100.00;101684.03;672702;29;1372;-81
2022/03/16 00:33:00;;;;;;;14.17;10.17;;;;;;;1.57;100.00;101729.16;675303;29;1350;-82
2022/03/16 00:33:20;;;;;;;11.55;9.10;;;;;;;1.64;100.00;101697.72;669634;29;4351;-81
2022/03/16 00:33:41;;;;;;;11.53;8.57;;;;;;;1.66;100.00;101686.69;672453;29;1175;-81
2022/03/16 00:34:02;;;;;;;12.63;9.57;;;;;;;1.75;100.00;101711.13;671031;29;1365;-81
2022/03/16 00:34:22;;;;;;;12.63;9.32;;;;;;;1.89;100.00;101719.53;669340;29;1024;-81
2022/03/16 00:34:43;;;;;;;12.20;9.45;;;;;;;1.89;100.00;101717.81;672576;29;1166;-81
2022/03/16 00:35:07;;;;;;;12.43;9.43;;;;;;;1.90;100.00;101711.84;676010;29;1408;-82
2022/03/16 00:35:27;;;;;;;12.10;9.00;;;;;;;2.00;100.00;101718.34;675792;29;1424;-81
2022/03/16 00:35:48;;;;;;;11.57;8.85;;;;;;;2.00;100.00;101703.72;676136;29;1240;-81
2022/03/16 00:36:08;;;;;;;12.60;9.02;;;;;;;1.84;100.00;101693.50;671317;29;1265;-83
2022/03/16 00:36:30;;;;;;;13.63;9.55;;;;;;;1.73;100.00;101712.72;669786;29;5201;-81
2022/03/16 00:36:51;;;;;;;12.32;9.20;;;;;;;1.61;100.00;101685.56;670721;29;1296;-81
2022/03/16 00:37:11;;;;;;;12.85;9.52;;;;;;;1.54;100.00;101701.53;673117;29;1160;-81
2022/03/16 00:37:32;;;;;;;13.60;10.00;;;;;;;1.46;100.00;101715.75;674512;29;997;-81
2022/03/16 00:37:53;;;;;;;11.90;9.83;;;;;;;1.41;100.00;101715.50;676173;29;1352;-81
2022/03/16 00:38:16;;;;;;;11.75;9.52;;;;;;;1.49;100.00;101687.53;675103;29;1221;-81
2022/03/16 00:38:37;;;;;;;12.48;9.25;;;;;;;1.60;100.00;101712.13;675461;29;887;-81
2022/03/16 00:39:00;;;;;;;12.55;9.10;;;;;;;1.70;100.00;101708.31;676938;29;1974;-81
2022/03/16 00:39:21;;;;;;;11.45;8.98;;;;;;;1.75;100.00;101718.88;674899;29;4479;-81
2022/03/16 00:39:41;;;;;;;12.57;8.90;;;;;;;1.67;100.00;101713.31;675551;29;1432;-81
2022/03/16 00:40:02;;;;;;;13.38;9.35;;;;;;;1.62;100.00;101697.66;675706;29;973;-81
2022/03/16 00:40:23;;;;;;;13.32;9.57;;;;;;;1.52;100.00;101690.25;674851;29;1121;-81
2022/03/16 00:40:44;;;;;;;12.93;9.27;;;;;;;1.45;100.00;101688.19;675975;29;1265;-81
2022/03/16 00:41:05;;;;;;;12.60;9.77;;;;;;;1.36;100.00;101692.09;676803;29;1146;-81
2022/03/16 00:41:28;;;;;;;12.80;9.60;;;;;;;1.33;100.00;101691.03;677592;29;1269;-81
2022/03/16 00:41:50;;;;;;;12.75;9.55;;;;;;;1.33;100.00;101720.28;670203;29;1498;-81
2022/03/16 00:42:13;;;;;;;11.80;9.10;;;;;;;1.41;100.00;101724.94;669921;29;1415;-80
2022/03/16 00:42:36;;;;;;;11.70;8.95;;;;;;;1.51;100.00;101691.09;672243;29;4823;-81
2022/03/16 00:43:00;;;;;;;12.88;9.43;;;;;;;1.56;100.00;101712.78;675235;29;1318;-81
2022/03/16 00:43:21;;;;;;;13.52;9.98;;;;;;;1.53;100.00;101699.78;677023;29;1223;-81
2022/03/16 00:43:42;;;;;;;11.87;9.07;;;;;;;1.45;100.00;101690.78;671380;29;3025;-81
2022/03/16 00:44:04;;;;;;;11.40;8.90;;;;;;;1.38;100.00;101712.78;676915;29;1375;-81
2022/03/16 00:44:25;;;;;;;14.25;9.38;;;;;;;1.29;100.00;101684.00;672734;29;1644;-81
2022/03/16 00:44:46;;;;;;;14.07;10.00;;;;;;;1.26;100.00;101725.94;669918;29;1288;-81
2022/03/16 00:45:07;;;;;;;12.63;9.57;;;;;;;1.22;100.00;101703.41;672752;29;1067;-81
2022/03/16 00:45:28;;;;;;;13.73;9.48;;;;;;;1.16;100.00;101696.28;675699;29;4324;-80
2022/03/16 00:45:49;;;;;;;13.35;9.73;;;;;;;1.10;100.00;101706.25;674232;29;897;-81
2022/03/16 00:46:09;;;;;;;12.97;9.70;;;;;;;1.08;100.00;101700.16;673324;29;1237;-81
2022/03/16 00:46:29;;;;;;;13.27;9.77;;;;;;;1.06;100.00;101712.06;675457;29;1170;-81
2022/03/16 00:46:53;;;;;;;14.00;10.23;;;;;;;1.04;100.00;101697.31;674036;29;1413;-81
2022/03/16 00:47:14;;;;;;;12.95;9.75;;;;;;;1.02;100.00;101698.16;676101;29;987;-81
2022/03/16 00:47:35;;;;;;;13.17;10.13;;;;;;;1.01;100.00;101693.81;677004;29;1304;-83
2022/03/16 00:47:58;;;;;;;13.60;10.10;;;;;;;0.99;100.00;101700.53;678811;29;1452;-81
2022/03/16 00:48:19;;;;;;;13.48;10.38;;;;;;;1.01;100.00;101698.03;672904;29;4358;-81
2022/03/16 00:48:42;;;;;;;12.68;9.63;;;;;;;1.03;100.00;101704.19;673206;29;878;-81
2022/03/16 00:49:03;;;;;;;13.63;10.27;;;;;;;1.07;100.00;101712.94;673720;29;902;-81
2022/03/16 00:49:24;;;;;;;13.57;10.50;;;;;;;1.04;100.00;101702.47;676293;29;1312;-81
2022/03/16 00:49:44;;;;;;;13.98;10.55;;;;;;;1.06;100.00;101708.59;675903;28;1433;-81
2022/03/16 00:50:05;;;;;;;13.73;10.27;;;;;;;1.06;100.00;101703.44;677275;29;1271;-82
2022/03/16 00:50:27;;;;;;;13.07;10.18;;;;;;;1.02;100.00;101710.13;675069;29;1197;-80
2022/03/16 00:50:48;;;;;;;13.55;10.25;;;;;;;1.00;100.00;101712.63;676095;29;1428;-81
2022/03/16 00:51:09;;;;;;;12.57;10.30;;;;;;;0.95;100.00;101721.78;673980;29;876;-81
2022/03/16 00:51:30;;;;;;;13.27;10.40;;;;;;;0.90;100.00;101710.41;671930;29;4514;-81
2022/03/16 00:51:50;;;;;;;13.50;10.30;;;;;;;0.88;100.00;101704.28;674055;29;1312;-81
2022/03/16 00:52:11;;;;;;;14.60;10.50;;;;;;;0.89;100.00;101698.31;675923;29;1317;-80
2022/03/16 00:52:34;;;;;;;13.38;9.85;;;;;;;0.95;100.00;101718.34;670570;29;1367;-80
2022/03/16 00:52:55;;;;;;;12.10;9.73;;;;;;;0.98;100.00;101716.81;675682;29;1343;-80
2022/03/16 00:53:15;;;;;;;13.37;10.30;;;;;;;0.97;100.00;101707.31;677984;29;1364;-82
2022/03/16 00:53:39;;;;;;;14.68;10.50;;;;;;;0.98;100.00;101703.06;676652;29;874;-80
2022/03/16 00:54:00;;;;;;;12.93;9.80;;;;;;;1.01;100.00;101721.22;676077;29;1418;-79
2022/03/16 00:54:20;;;;;;;13.00;9.80;;;;;;;1.04;100.00;101690.50;675817;29;4315;-83
2022/03/16 00:54:41;;;;;;;13.73;9.70;;;;;;;1.04;100.00;101692.16;675412;28;1141;-81
2022/03/16 00:55:02;;;;;;;12.45;9.35;;;;;;;1.02;100.00;101695.56;673869;29;1237;-81
2022/03/16 00:55:22;;;;;;;12.73;9.82;;;;;;;1.00;100.00;101693.72;675031;29;1174;-80
2022/03/16 00:55:43;;;;;;;13.60;9.98;;;;;;;1.03;100.00;101701.59;674893;29;1435;-81
2022/03/16 00:56:04;;;;;;;13.67;10.20;;;;;;;1.05;100.00;101722.28;674434;29;969;-81
2022/03/16 00:56:25;;;;;;;14.63;10.93;;;;;;;1.02;100.00;101734.22;675923;29;1399;-81
2022/03/16 00:56:45;;;;;;;13.57;9.82;;;;;;;1.06;100.00;101703.44;673503;29;1174;-80
2022/03/16 00:57:06;;;;;;;13.07;9.93;;;;;;;1.05;100.00;101699.97;676281;29;1379;-81
2022/03/16 00:57:26;;;;;;;12.77;9.97;;;;;;;1.02;100.00;101698.16;674724;29;4309;-82
2022/03/16 00:57:47;;;;;;;14.53;10.77;;;;;;;0.93;100.00;101715.69;676109;29;1284;-81
2022/03/16 00:58:10;;;;;;;14.13;10.93;;;;;;;0.95;100.00;101702.91;675746;29;884;-82
2022/03/16 00:58:30;;;;;;;13.18;10.00;;;;;;;0.95;100.00;101692.59;677496;29;1342;-81
2022/03/16 00:58:54;;;;;;;12.40;9.80;;;;;;;0.95;100.00;101729.53;674333;29;1914;-81
2022/03/16 00:59:15;;;;;;;14.82;10.15;;;;;;;0.98;100.00;101719.41;674497;29;1036;-81
2022/03/16 00:59:36;;;;;;;14.37;10.67;;;;;;;1.00;100.00;101706.59;673218;29;912;-82
2022/03/16 00:59:58;;;;;;;13.23;10.90;;;;;;;0.97;100.00;101691.88;673713;29;787;-81
2022/03/16 01:00:19;;;;;;;13.27;10.00;;;;;;;0.98;100.00;101701.38;670697;29;4348;-81
2022/03/16 01:00:39;;;;;;;13.27;10.10;;;;;;;1.05;100.00;101687.09;671600;29;1362;-81
2022/03/16 01:01:01;;;;;;;12.75;9.70;;;;;;;1.05;100.00;101696.53;671427;29;1271;-81
2022/03/16 01:01:21;;;;;;;13.60;10.07;;;;;;;1.04;100.00;101687.03;673146;29;889;-80
2022/03/16 01:01:44;;;;;;;13.93;9.73;;;;;;;1.12;100.00;101689.19;674062;29;1610;-81
2022/03/16 01:02:07;;;;;;;12.52;9.52;;;;;;;1.18;100.00;101692.06;674766;29;1509;-81
2022/03/16 01:02:33;;;;;;;12.40;9.23;;;;;;;1.25;100.00;101711.28;675008;29;1218;-81
2022/03/16 01:02:56;;;;;;;12.38;9.48;;;;;;;1.38;100.00;101704.19;672568;29;1300;-81
2022/03/16 01:03:16;;;;;;;12.30;9.60;;;;;;;1.39;100.00;101711.09;674782;29;4564;-82
2022/03/16 01:03:41;;;;;;;12.60;9.50;;;;;;;1.31;100.00;101703.84;676160;28;1231;-81
2022/03/16 01:04:01;;;;;;;11.95;9.02;;;;;;;1.33;100.00;101697.09;672741;29;909;-81
2022/03/16 01:04:22;;;;;;;11.95;9.15;;;;;;;1.40;100.00;101710.28;671815;29;1297;-81
2022/03/16 01:04:43;;;;;;;13.73;9.70;;;;;;;1.35;100.00;101715.22;670474;29;870;-81
2022/03/16 01:05:05;;;;;;;13.73;9.90;;;;;;;1.29;100.00;101718.38;672942;29;1407;-81
2022/03/16 01:05:25;;;;;;;11.52;9.55;;;;;;;1.33;100.00;101721.97;671457;29;1216;-81
2022/03/16 01:05:47;;;;;;;12.45;9.75;;;;;;;1.29;100.00;101690.03;672909;29;1297;-81
2022/03/16 01:06:20;;;;;;;12.73;9.77;;;;;;;1.32;100.00;101692.75;676295;29;1216;-81
2022/03/16 01:06:40;;;;;;;12.38;9.43;;;;;;;1.41;100.00;101691.44;675817;29;4899;-81
2022/03/16 01:07:00;;;;;;;12.65;9.70;;;;;;;1.35;100.00;101687.75;675655;29;852;-81
2022/03/16 01:07:21;;;;;;;11.83;9.23;;;;;;;1.32;100.00;101689.31;679935;28;1637;-81
2022/03/16 01:07:41;;;;;;;12.80;9.23;;;;;;;1.33;100.00;101691.03;682695;28;904;-81
2022/03/16 01:08:02;;;;;;;12.27;9.20;;;;;;;1.38;100.00;101693.88;681289;28;884;-81
2022/03/16 01:08:23;;;;;;;11.88;9.18;;;;;;;1.44;100.00;101696.72;674765;29;1333;-80
2022/03/16 01:08:45;;;;;;;12.40;9.35;;;;;;;1.46;100.00;101698.59;676148;29;992;-81
2022/03/16 01:09:05;;;;;;;12.98;9.77;;;;;;;1.41;100.00;101691.44;676446;29;1346;-81
2022/03/16 01:09:26;;;;;;;12.88;9.40;;;;;;;1.35;100.00;101687.75;677101;29;4329;-81
2022/03/16 01:09:46;;;;;;;12.00;9.27;;;;;;;1.30;100.00;101696.97;674465;29;1224;-81
2022/03/16 01:10:07;;;;;;;12.40;9.25;;;;;;;1.32;100.00;101689.31;671855;29;1297;-82
2022/03/16 01:10:28;;;;;;;12.30;9.15;;;;;;;1.29;100.00;101695.19;669799;29;1700;-81
2022/03/16 01:10:49;;;;;;;13.25;9.98;;;;;;;1.29;100.00;101689.16;670195;29;1223;-81
2022/03/16 01:11:11;;;;;;;13.03;9.50;;;;;;;1.21;100.00;101700.78;671031;29;952;-81
2022/03/16 01:11:31;;;;;;;14.13;9.68;;;;;;;1.14;100.00;101684.13;670650;29;1252;-81
2022/03/16 01:11:54;;;;;;;14.02;9.52;;;;;;;1.16;100.00;101687.63;673074;29;1455;-80
2022/03/16 01:12:15;;;;;;;12.27;9.50;;;;;;;1.22;100.00;101687.97;672931;29;4333;-81
2022/03/16 01:12:36;;;;;;;12.70;9.40;;;;;;;1.25;100.00;101697.53;671549;29;1676;-81
2022/03/16 01:12:56;;;;;;;12.70;9.52;;;;;;;1.28;100.00;101687.38;678616;29;1146;-81
2022/03/16 01:13:17;;;;;;;12.27;9.43;;;;;;;1.34;100.00;101688.56;678278;29;1203;-81
2022/03/16 01:13:38;;;;;;;13.25;9.10;;;;;;;1.34;100.00;101690.25;675881;29;1219;-81
2022/03/16 01:14:01;;;;;;;11.65;9.10;;;;;;;1.35;100.00;101690.31;672360;29;1443;-81
2022/03/16 01:14:24;;;;;;;11.90;9.13;;;;;;;1.38;100.00;101688.72;673083;29;963;-81
2022/03/16 01:14:45;;;;;;;11.98;9.00;;;;;;;1.47;100.00;101692.63;676184;29;1313;-81
2022/03/16 01:15:06;;;;;;;12.63;8.93;;;;;;;1.43;100.00;101695.84;677308;29;1296;-81
2022/03/16 01:15:28;;;;;;;13.18;9.52;;;;;;;1.37;100.00;101687.81;676766;29;4279;-82
2022/03/16 01:15:49;;;;;;;12.15;9.40;;;;;;;1.32;100.00;101700.47;678282;29;1413;-81
2022/03/16 01:16:09;;;;;;;12.63;9.57;;;;;;;1.25;100.00;101692.38;678006;29;1150;-81
2022/03/16 01:16:32;;;;;;;13.53;9.77;;;;;;;1.20;100.00;101689.56;678809;29;1237;-81
2022/03/16 01:16:53;;;;;;;12.75;9.40;;;;;;;1.15;100.00;101691.00;678555;29;1323;-81
2022/03/16 01:17:13;;;;;;;13.20;9.88;;;;;;;1.09;100.00;101698.44;679143;29;1233;-81
2022/03/16 01:17:34;;;;;;;12.27;9.30;;;;;;;1.05;100.00;101684.53;674682;29;1604;-81
2022/03/16 01:17:54;;;;;;;12.20;9.00;;;;;;;1.00;100.00;101693.72;676553;29;1100;-81
2022/03/16 01:18:15;;;;;;;12.02;9.57;;;;;;;0.97;100.00;101693.53;675054;29;4392;-81
2022/03/16 01:18:36;;;;;;;12.57;9.63;;;;;;;0.93;100.00;101710.56;672417;29;805;-81
2022/03/16 01:18:56;;;;;;;14.43;10.10;;;;;;;0.89;100.00;101679.41;672137;29;1917;-81
2022/03/16 01:19:29;;;;;;;13.50;9.60;;;;;;;0.86;100.00;101677.56;673228;29;1171;-81
2022/03/16 01:19:52;;;;;;;13.30;9.90;;;;;;;0.85;100.00;101704.13;674413;29;1032;-81
2022/03/16 01:20:13;;;;;;;13.32;10.18;;;;;;;0.80;100.00;101682.41;673079;29;1312;-81
2022/03/16 01:20:33;;;;;;;14.15;10.30;;;;;;;0.78;100.00;101705.50;672633;29;1233;-81
2022/03/16 01:20:54;;;;;;;13.57;9.93;;;;;;;0.76;100.00;101714.84;670594;29;1499;-80
2022/03/16 01:21:15;;;;;;;13.35;10.10;;;;;;;0.77;100.00;101677.09;669906;29;4335;-81
2022/03/16 01:21:35;;;;;;;13.55;9.90;;;;;;;0.80;100.00;101695.25;672539;29;1241;-81
2022/03/16 01:21:59;;;;;;;13.35;9.88;;;;;;;0.79;100.00;101681.53;673543;29;893;-81
2022/03/16 01:22:19;;;;;;;14.60;10.70;;;;;;;0.76;100.00;101683.03;673584;29;1348;-81
2022/03/16 01:22:40;;;;;;;14.07;10.13;;;;;;;0.75;100.00;101684.75;675797;29;1589;-81
2022/03/16 01:23:00;;;;;;;13.73;10.20;;;;;;;0.78;100.00;101673.72;672556;29;1260;-81
2022/03/16 01:23:24;;;;;;;14.50;10.05;;;;;;;0.81;100.00;101709.91;672435;29;1306;-81
2022/03/16 01:23:45;;;;;;;13.48;9.75;;;;;;;0.96;100.00;101681.50;671135;29;1340;-81
2022/03/16 01:24:08;;;;;;;13.33;9.40;;;;;;;1.05;100.00;101704.25;674460;29;1294;-81
2022/03/16 01:24:28;;;;;;;11.27;9.02;;;;;;;1.10;100.00;101677.03;678014;29;4284;-81
2022/03/16 01:24:49;;;;;;;11.97;9.17;;;;;;;1.10;100.00;101692.50;676125;29;911;-80
2022/03/16 01:25:11;;;;;;;13.57;9.77;;;;;;;1.07;100.00;101676.91;678821;29;1212;-81
2022/03/16 01:25:31;;;;;;;12.93;9.85;;;;;;;1.10;100.00;101697.66;675695;29;1191;-81
2022/03/16 01:25:52;;;;;;;13.85;10.27;;;;;;;1.10;100.00;101682.19;669644;29;1541;-80
2022/03/16 01:26:13;;;;;;;13.37;9.87;;;;;;;1.14;100.00;101673.81;671715;29;1335;-81
2022/03/16 01:26:34;;;;;;;12.82;9.70;;;;;;;1.26;100.00;101695.03;675355;29;1409;-81
2022/03/16 01:26:55;;;;;;;12.50;9.27;;;;;;;1.33;100.00;101685.88;674488;29;930;-81
2022/03/16 01:27:16;;;;;;;12.20;9.10;;;;;;;1.34;100.00;101692.81;673744;29;4352;-81
2022/03/16 01:27:42;;;;;;;11.63;9.03;;;;;;;1.28;100.00;101703.72;676010;28;1267;-81
2022/03/16 01:28:08;;;;;;;12.93;9.15;;;;;;;1.25;100.00;101703.56;675608;29;1204;-81
2022/03/16 01:28:29;;;;;;;12.70;9.25;;;;;;;1.23;100.00;101693.97;671902;29;1293;-81
2022/03/16 01:28:50;;;;;;;13.07;9.50;;;;;;;1.16;100.00;101682.50;668847;29;1211;-81
2022/03/16 01:29:11;;;;;;;12.18;9.30;;;;;;;1.08;100.00;101687.28;672205;29;1351;-81
2022/03/16 01:29:35;;;;;;;13.25;9.35;;;;;;;1.01;100.00;101678.34;672161;29;1053;-81
2022/03/16 01:29:55;;;;;;;14.02;10.00;;;;;;;0.97;100.00;101701.28;673661;29;813;-81
2022/03/16 01:30:16;;;;;;;13.18;9.77;;;;;;;0.94;100.00;101686.59;675193;29;4703;-81
2022/03/16 01:30:37;;;;;;;13.45;10.00;;;;;;;0.89;100.00;101671.66;674996;29;1313;-81
2022/03/16 01:31:00;;;;;;;13.50;9.70;;;;;;;0.82;100.00;101689.41;673562;29;1360;-81
2022/03/16 01:31:21;;;;;;;12.65;9.63;;;;;;;0.84;100.00;101700.69;673837;29;1243;-81
2022/03/16 01:31:42;;;;;;;12.27;9.68;;;;;;;0.84;100.00;101689.47;672958;29;956;-81
2022/03/16 01:32:03;;;;;;;12.73;9.60;;;;;;;0.85;100.00;101691.25;672880;29;1289;-81
2022/03/16 01:32:24;;;;;;;13.10;9.45;;;;;;;0.88;100.00;101668.22;676173;29;1264;-81
2022/03/16 01:32:46;;;;;;;12.52;9.77;;;;;;;0.97;100.00;101696.13;674158;29;1360;-81
2022/03/16 01:33:07;;;;;;;12.88;9.65;;;;;;;0.97;100.00;101668.69;675500;29;1367;-81
2022/03/16 01:33:30;;;;;;;13.05;9.73;;;;;;;1.00;100.00;101676.56;675259;29;4330;-81
2022/03/16 01:33:51;;;;;;;12.00;9.52;;;;;;;0.98;100.00;101673.06;676668;29;1383;-81
2022/03/16 01:34:14;;;;;;;13.23;9.52;;;;;;;0.94;100.00;101671.13;678251;29;1360;-81
2022/03/16 01:34:37;;;;;;;13.70;9.63;;;;;;;0.91;100.00;101703.56;674516;29;1265;-80
2022/03/16 01:35:02;;;;;;;13.38;9.93;;;;;;;0.98;100.00;101678.19;673534;29;861;-81
2022/03/16 01:35:22;;;;;;;12.63;9.27;;;;;;;1.10;100.00;101682.19;675483;29;1434;-81
2022/03/16 01:35:43;;;;;;;12.52;9.10;;;;;;;1.17;100.00;101669.69;675920;29;1012;-81
2022/03/16 01:36:05;;;;;;;12.85;9.27;;;;;;;1.18;100.00;101675.75;678398;29;1389;-81
2022/03/16 01:36:28;;;;;;;13.27;9.43;;;;;;;1.18;100.00;101671.47;679944;28;4294;-81
2022/03/16 01:36:54;;;;;;;12.07;9.10;;;;;;;1.19;100.00;101675.81;682093;28;1058;-81
2022/03/16 01:37:16;;;;;;;12.18;9.65;;;;;;;1.17;100.00;101679.97;681356;28;995;-81
2022/03/16 01:37:39;;;;;;;13.02;9.65;;;;;;;1.13;100.00;101672.03;680775;28;1337;-81
2022/03/16 01:37:59;;;;;;;13.00;9.50;;;;;;;1.08;100.00;101678.66;678548;29;1445;-81
2022/03/16 01:38:20;;;;;;;13.33;9.73;;;;;;;0.98;100.00;101669.56;673376;29;1396;-81
2022/03/16 01:38:40;;;;;;;12.63;9.90;;;;;;;0.93;100.00;101674.50;670652;29;1148;-81
2022/03/16 01:39:01;;;;;;;13.87;10.13;;;;;;;0.91;100.00;101676.09;673860;29;1895;-81
2022/03/16 01:39:21;;;;;;;13.35;9.93;;;;;;;0.89;100.00;101666.53;674906;29;4339;-81
2022/03/16 01:39:43;;;;;;;13.35;10.20;;;;;;;0.87;100.00;101673.31;675285;29;1268;-81
2022/03/16 01:40:06;;;;;;;13.23;10.07;;;;;;;0.89;100.00;101675.16;673693;28;1325;-82
2022/03/16 01:40:26;;;;;;;13.38;10.20;;;;;;;0.87;100.00;101673.31;674558;29;981;-81
2022/03/16 01:40:47;;;;;;;14.52;10.40;;;;;;;0.79;100.00;101670.31;677563;29;1246;-81
2022/03/16 01:41:08;;;;;;;14.27;10.57;;;;;;;0.77;100.00;101667.66;678713;28;1586;-81